createdAt,value
2019-02-12T00:00:18.736Z,70.51
2019-02-12T00:01:18.756Z,69.99
2019-02-12T00:02:18.746Z,71.44
2019-02-12T00:03:18.698Z,70.92
2019-02-12T00:04:18.787Z,71.13
2019-02-12T00:05:18.689Z,71.55
2019-02-12T00:06:18.688Z,69.78
2019-02-12T00:07:18.669Z,71.86
2019-02-12T00:08:18.810Z,70.09
2019-02-12T00:09:18.653Z,70.30
2019-02-12T00:10:18.693Z,70.51
2019-02-12T00:11:18.640Z,70.82
2019-02-12T00:12:18.621Z,70.82
2019-02-12T00:13:18.601Z,71.13
2019-02-12T00:14:18.651Z,71.37
2019-02-12T00:15:18.572Z,70.12
2019-02-12T00:16:18.642Z,71.69
2019-02-12T00:17:18.665Z,71.58
2019-02-12T00:18:18.545Z,69.89
2019-02-12T00:19:18.593Z,71.44
2019-02-12T00:20:19.395Z,69.47
2019-02-12T00:21:18.575Z,70.12
2019-02-12T00:22:18.485Z,70.51
2019-02-12T00:23:18.565Z,69.26
2019-02-12T00:24:18.476Z,69.78
2019-02-12T00:25:18.507Z,69.57
2019-02-12T00:26:18.457Z,68.22
2019-02-12T00:27:18.538Z,67.70
2019-02-12T00:28:18.417Z,71.34
2019-02-12T00:29:18.482Z,69.15
2019-02-12T00:30:18.438Z,68.01
2019-02-12T00:31:18.396Z,67.91
2019-02-12T00:32:18.479Z,67.29
2019-02-12T00:33:19.390Z,66.97
2019-02-12T00:34:18.385Z,68.43
2019-02-12T00:35:19.400Z,66.97
2019-02-12T00:36:18.341Z,67.49
2019-02-12T00:37:19.343Z,68.22
2019-02-12T00:38:18.303Z,67.91
2019-02-12T00:39:18.890Z,68.32
2019-02-12T00:40:18.323Z,68.12
2019-02-12T00:41:18.283Z,69.26
2019-02-12T00:42:19.284Z,69.68
2019-02-12T00:43:18.238Z,68.63
2019-02-12T00:44:18.245Z,68.63
2019-02-12T00:45:18.237Z,68.84
2019-02-12T00:46:19.305Z,70.72
2019-02-12T00:47:18.206Z,68.32
2019-02-12T00:48:18.266Z,68.22
2019-02-12T00:49:18.354Z,68.43
2019-02-12T00:50:18.185Z,68.32
2019-02-12T00:51:18.200Z,67.60
2019-02-12T00:52:18.240Z,67.67
2019-02-12T00:53:18.148Z,68.63
2019-02-12T00:54:18.178Z,68.53
2019-02-12T00:55:18.146Z,68.95
2019-02-12T00:56:18.121Z,68.12
2019-02-12T00:57:18.182Z,69.78
2019-02-12T00:58:18.081Z,68.63
2019-02-12T00:59:18.110Z,69.57
2019-02-12T01:00:18.061Z,69.37
2019-02-12T01:01:18.101Z,69.15
2019-02-12T01:02:18.011Z,69.05
2019-02-12T01:03:18.092Z,69.26
2019-02-12T01:04:18.015Z,69.26
2019-02-12T01:05:18.024Z,69.37
2019-02-12T01:06:17.993Z,69.05
2019-02-12T01:07:19.084Z,69.47
2019-02-12T01:08:17.964Z,69.15
2019-02-12T01:09:17.995Z,69.47
2019-02-12T01:10:17.934Z,69.15
2019-02-12T01:11:17.935Z,68.12
2019-02-12T01:12:17.915Z,68.12
2019-02-12T01:13:24.518Z,69.05
2019-02-12T01:14:17.886Z,68.63
2019-02-12T01:15:17.896Z,69.05
2019-02-12T01:16:17.890Z,69.05
2019-02-12T01:17:17.857Z,70.92
2019-02-12T01:18:17.907Z,70.51
2019-02-12T01:19:17.838Z,69.15
2019-02-12T01:20:17.838Z,69.29
2019-02-12T01:21:25.889Z,69.47
2019-02-12T01:22:18.899Z,69.37
2019-02-12T01:23:17.789Z,71.44
2019-02-12T01:24:17.810Z,69.47
2019-02-12T01:25:17.776Z,69.47
2019-02-12T01:26:17.800Z,70.09
2019-02-12T01:27:17.821Z,69.37
2019-02-12T01:28:17.741Z,69.26
2019-02-12T01:29:18.782Z,70.51
2019-02-12T01:30:17.713Z,68.74
2019-02-12T01:31:17.733Z,69.89
2019-02-12T01:32:17.693Z,70.30
2019-02-12T01:33:17.686Z,70.30
2019-02-12T01:34:17.694Z,71.06
2019-02-12T01:35:17.654Z,70.09
2019-02-12T01:36:17.686Z,69.78
2019-02-12T01:37:17.638Z,69.15
2019-02-12T01:38:17.625Z,68.53
2019-02-12T01:39:17.617Z,68.01
2019-02-12T01:40:17.696Z,68.84
2019-02-12T01:41:17.607Z,67.91
2019-02-12T01:42:17.637Z,67.80
2019-02-12T01:43:17.608Z,68.95
2019-02-12T01:44:17.539Z,67.80
2019-02-12T01:45:17.638Z,67.70
2019-02-12T01:46:17.552Z,69.26
2019-02-12T01:47:17.569Z,69.68
2019-02-12T01:48:17.509Z,70.51
2019-02-12T01:49:17.510Z,71.13
2019-02-12T01:50:17.491Z,71.89
2019-02-12T01:51:17.590Z,69.09
2019-02-12T01:52:17.452Z,67.83
2019-02-12T01:53:17.481Z,67.73
2019-02-12T01:54:17.434Z,68.15
2019-02-12T01:55:17.516Z,69.68
2019-02-12T01:56:17.422Z,70.85
2019-02-12T01:57:17.453Z,69.37
2019-02-12T01:58:17.383Z,67.73
2019-02-12T01:59:17.374Z,69.47
2019-02-12T02:00:17.365Z,67.80
2019-02-12T02:01:17.464Z,67.73
2019-02-12T02:02:17.340Z,66.80
2019-02-12T02:03:17.357Z,66.35
2019-02-12T02:04:17.319Z,65.41
2019-02-12T02:05:17.401Z,66.35
2019-02-12T02:06:17.307Z,66.45
2019-02-12T02:07:20.558Z,66.35
2019-02-12T02:08:17.268Z,65.20
2019-02-12T02:09:18.297Z,66.24
2019-02-12T02:10:17.250Z,66.45
2019-02-12T02:11:17.308Z,67.39
2019-02-12T02:12:17.249Z,66.97
2019-02-12T02:13:17.239Z,66.35
2019-02-12T02:14:17.209Z,66.45
2019-02-12T02:15:17.200Z,66.24
2019-02-12T02:16:17.191Z,66.45
2019-02-12T02:17:17.261Z,66.77
2019-02-12T02:18:17.172Z,68.01
2019-02-12T02:19:18.171Z,66.97
2019-02-12T02:20:17.223Z,66.77
2019-02-12T02:21:17.132Z,67.08
2019-02-12T02:22:17.192Z,67.39
2019-02-12T02:23:17.114Z,66.77
2019-02-12T02:24:17.193Z,66.97
2019-02-12T02:25:17.083Z,67.91
2019-02-12T02:26:19.174Z,67.80
2019-02-12T02:27:17.074Z,67.73
2019-02-12T02:28:17.165Z,67.80
2019-02-12T02:29:17.045Z,69.05
2019-02-12T02:30:17.099Z,68.66
2019-02-12T02:31:17.016Z,69.29
2019-02-12T02:32:17.086Z,70.23
2019-02-12T02:33:16.986Z,69.50
2019-02-12T02:34:17.067Z,70.12
2019-02-12T02:35:16.982Z,69.99
2019-02-12T02:36:16.947Z,71.34
2019-02-12T02:37:17.018Z,69.92
2019-02-12T02:38:16.943Z,69.89
2019-02-12T02:39:17.001Z,71.69
2019-02-12T02:40:16.915Z,72.80
2019-02-12T02:41:16.889Z,69.78
2019-02-12T02:42:16.907Z,70.82
2019-02-12T02:43:16.971Z,71.69
2019-02-12T02:44:16.862Z,73.35
2019-02-12T02:45:17.935Z,73.46
2019-02-12T02:46:16.834Z,71.48
2019-02-12T02:47:16.843Z,72.93
2019-02-12T02:48:16.912Z,72.72
2019-02-12T02:49:16.802Z,71.89
2019-02-12T02:50:16.863Z,71.79
2019-02-12T02:51:16.783Z,71.79
2019-02-12T02:52:16.795Z,71.48
2019-02-12T02:53:16.755Z,71.79
2019-02-12T02:54:16.825Z,72.93
2019-02-12T02:55:16.746Z,73.77
2019-02-12T02:56:16.770Z,73.66
2019-02-12T02:57:16.777Z,73.03
2019-02-12T02:58:16.707Z,72.93
2019-02-12T02:59:16.768Z,71.79
2019-02-12T03:00:16.766Z,71.89
2019-02-12T03:01:17.729Z,70.95
2019-02-12T03:02:16.678Z,71.69
2019-02-12T03:03:16.739Z,72.00
2019-02-12T03:04:16.640Z,71.37
2019-02-12T03:05:16.680Z,70.85
2019-02-12T03:06:16.620Z,70.95
2019-02-12T03:07:16.662Z,69.50
2019-02-12T03:08:16.592Z,69.19
2019-02-12T03:09:16.640Z,70.12
2019-02-12T03:10:16.572Z,69.71
2019-02-12T03:11:16.582Z,68.88
2019-02-12T03:12:16.562Z,69.19
2019-02-12T03:13:16.532Z,68.46
2019-02-12T03:14:16.513Z,68.25
2019-02-12T03:15:16.552Z,68.04
2019-02-12T03:16:16.509Z,68.01
2019-02-12T03:17:16.533Z,68.25
2019-02-12T03:18:16.474Z,69.19
2019-02-12T03:19:16.525Z,69.89
2019-02-12T03:20:16.446Z,70.95
2019-02-12T03:21:16.456Z,69.19
2019-02-12T03:22:16.440Z,67.83
2019-02-12T03:23:16.498Z,68.77
2019-02-12T03:24:16.456Z,69.09
2019-02-12T03:25:16.396Z,69.09
2019-02-12T03:26:16.397Z,67.94
2019-02-12T03:27:16.392Z,69.37
2019-02-12T03:28:16.427Z,70.75
2019-02-12T03:29:16.399Z,70.12
2019-02-12T03:30:16.340Z,69.50
2019-02-12T03:31:16.440Z,71.69
2019-02-12T03:32:16.346Z,69.29
2019-02-12T03:33:18.432Z,70.54
2019-02-12T03:34:16.305Z,70.43
2019-02-12T03:35:16.310Z,69.60
2019-02-12T03:36:16.282Z,68.04
2019-02-12T03:37:16.401Z,68.66
2019-02-12T03:38:16.253Z,68.56
2019-02-12T03:39:17.312Z,69.29
2019-02-12T03:40:16.237Z,70.23
2019-02-12T03:41:16.323Z,69.40
2019-02-12T03:42:16.229Z,68.98
2019-02-12T03:43:16.267Z,68.84
2019-02-12T03:44:16.184Z,69.29
2019-02-12T03:45:16.180Z,69.50
2019-02-12T03:46:16.165Z,69.19
2019-02-12T03:47:16.276Z,71.06
2019-02-12T03:48:16.136Z,70.54
2019-02-12T03:49:16.155Z,70.57
2019-02-12T03:50:16.116Z,69.50
2019-02-12T03:51:17.117Z,70.02
2019-02-12T03:52:16.107Z,69.81
2019-02-12T03:53:16.137Z,70.23
2019-02-12T03:54:16.067Z,69.19
2019-02-12T03:55:16.069Z,70.75
2019-02-12T03:56:16.038Z,70.33
2019-02-12T03:57:16.148Z,69.19
2019-02-12T03:58:16.019Z,69.40
2019-02-12T03:59:16.042Z,68.98
2019-02-12T04:00:15.999Z,69.50
2019-02-12T04:01:15.982Z,70.33
2019-02-12T04:02:15.985Z,69.09
2019-02-12T04:03:16.011Z,69.92
2019-02-12T04:04:15.951Z,68.35
2019-02-12T04:05:16.041Z,68.35
2019-02-12T04:06:15.913Z,68.32
2019-02-12T04:07:16.022Z,68.95
2019-02-12T04:08:15.902Z,68.84
2019-02-12T04:09:15.913Z,68.53
2019-02-12T04:10:15.884Z,68.12
2019-02-12T04:11:15.955Z,69.47
2019-02-12T04:12:15.868Z,68.77
2019-02-12T04:13:15.936Z,68.95
2019-02-12T04:14:15.835Z,69.50
2019-02-12T04:15:15.926Z,69.50
2019-02-12T04:16:15.830Z,69.05
2019-02-12T04:17:15.807Z,69.29
2019-02-12T04:18:15.820Z,69.26
2019-02-12T04:19:15.797Z,69.57
2019-02-12T04:20:15.784Z,70.20
2019-02-12T04:21:15.838Z,69.92
2019-02-12T04:22:22.185Z,71.17
2019-02-12T04:23:16.759Z,69.29
2019-02-12T04:24:15.839Z,69.40
2019-02-12T04:25:15.731Z,68.74
2019-02-12T04:26:15.781Z,69.29
2019-02-12T04:27:15.726Z,68.66
2019-02-12T04:28:15.761Z,69.09
2019-02-12T04:29:15.671Z,69.40
2019-02-12T04:30:15.741Z,70.43
2019-02-12T04:31:15.652Z,69.57
2019-02-12T04:32:16.708Z,69.40
2019-02-12T04:33:15.643Z,69.78
2019-02-12T04:34:17.665Z,70.43
2019-02-12T04:35:15.603Z,69.29
2019-02-12T04:36:15.655Z,71.27
2019-02-12T04:37:15.584Z,70.54
2019-02-12T04:38:15.574Z,70.43
2019-02-12T04:39:15.555Z,69.81
2019-02-12T04:40:16.645Z,71.37
2019-02-12T04:41:15.527Z,71.58
2019-02-12T04:42:15.555Z,70.54
2019-02-12T04:43:15.520Z,71.17
2019-02-12T04:44:15.600Z,71.17
2019-02-12T04:45:15.478Z,70.02
2019-02-12T04:46:15.527Z,70.75
2019-02-12T04:47:15.460Z,70.43
2019-02-12T04:48:15.509Z,71.41
2019-02-12T04:49:15.438Z,72.00
2019-02-12T04:50:15.502Z,71.82
2019-02-12T04:51:15.410Z,71.79
2019-02-12T04:52:16.469Z,71.37
2019-02-12T04:53:15.400Z,72.41
2019-02-12T04:54:15.379Z,71.48
2019-02-12T04:55:15.371Z,71.17
2019-02-12T04:56:16.444Z,71.69
2019-02-12T04:57:15.345Z,71.17
2019-02-12T04:58:16.421Z,71.27
2019-02-12T04:59:15.333Z,72.20
2019-02-12T05:00:15.391Z,71.69
2019-02-12T05:01:15.313Z,72.45
2019-02-12T05:02:15.325Z,72.34
2019-02-12T05:03:15.307Z,71.82
2019-02-12T05:04:15.362Z,72.86
2019-02-12T05:05:15.265Z,71.82
2019-02-12T05:06:16.315Z,71.79
2019-02-12T05:07:15.245Z,72.24
2019-02-12T05:08:15.276Z,72.10
2019-02-12T05:09:15.216Z,72.83
2019-02-12T05:10:15.207Z,72.55
2019-02-12T05:11:15.197Z,72.55
2019-02-12T05:12:15.308Z,73.18
2019-02-12T05:13:15.193Z,73.49
2019-02-12T05:14:15.244Z,72.97
2019-02-12T05:15:15.199Z,73.38
2019-02-12T05:16:15.138Z,73.49
2019-02-12T05:17:23.020Z,73.80
2019-02-12T05:18:15.134Z,74.21
2019-02-12T05:19:15.171Z,73.69
2019-02-12T05:20:15.091Z,74.04
2019-02-12T05:21:15.071Z,74.53
2019-02-12T05:22:15.170Z,74.74
2019-02-12T05:23:15.071Z,75.26
2019-02-12T05:24:15.112Z,75.36
2019-02-12T05:25:15.032Z,75.88
2019-02-12T05:26:15.022Z,76.92
2019-02-12T05:27:15.113Z,76.51
2019-02-12T05:28:15.013Z,76.86
2019-02-12T05:29:15.044Z,76.65
2019-02-12T05:30:14.974Z,76.54
2019-02-12T05:31:14.974Z,76.51
2019-02-12T05:32:14.947Z,76.02
2019-02-12T05:33:15.088Z,76.43
2019-02-12T05:34:14.925Z,78.10
2019-02-12T05:35:14.954Z,77.58
2019-02-12T05:36:14.916Z,75.92
2019-02-12T05:37:14.988Z,75.71
2019-02-12T05:38:14.897Z,75.05
2019-02-12T05:39:14.932Z,74.84
2019-02-12T05:40:14.873Z,76.40
2019-02-12T05:41:14.968Z,76.61
2019-02-12T05:42:14.877Z,76.43
2019-02-12T05:43:14.959Z,76.72
2019-02-12T05:44:14.819Z,76.12
2019-02-12T05:45:14.842Z,76.12
2019-02-12T05:46:14.817Z,76.65
2019-02-12T05:47:14.798Z,76.30
2019-02-12T05:48:14.891Z,75.88
2019-02-12T05:49:14.761Z,76.51
2019-02-12T05:50:14.783Z,76.72
2019-02-12T05:51:14.743Z,76.72
2019-02-12T05:52:14.735Z,76.96
2019-02-12T05:53:14.835Z,76.43
2019-02-12T05:54:14.713Z,76.23
2019-02-12T05:55:14.713Z,76.43
2019-02-12T05:56:14.685Z,76.75
2019-02-12T05:57:14.674Z,76.43
2019-02-12T05:58:14.684Z,76.65
2019-02-12T05:59:14.689Z,76.86
2019-02-12T06:00:14.656Z,74.87
2019-02-12T06:01:15.649Z,75.09
2019-02-12T06:02:14.608Z,75.50
2019-02-12T06:03:15.726Z,76.40
2019-02-12T06:04:14.600Z,76.09
2019-02-12T06:05:14.699Z,76.51
2019-02-12T06:06:16.964Z,75.81
2019-02-12T06:07:14.627Z,75.78
2019-02-12T06:08:15.668Z,76.43
2019-02-12T06:09:14.538Z,76.12
2019-02-12T06:10:14.639Z,75.81
2019-02-12T06:11:14.512Z,75.40
2019-02-12T06:12:15.590Z,76.02
2019-02-12T06:13:14.587Z,76.12
2019-02-12T06:14:14.471Z,75.60
2019-02-12T06:15:14.578Z,75.92
2019-02-12T06:16:14.463Z,76.23
2019-02-12T06:17:14.513Z,76.86
2019-02-12T06:18:14.462Z,76.54
2019-02-12T06:19:14.432Z,75.36
2019-02-12T06:20:14.523Z,76.12
2019-02-12T06:21:14.402Z,76.12
2019-02-12T06:22:14.454Z,76.02
2019-02-12T06:23:14.383Z,76.75
2019-02-12T06:24:14.384Z,76.51
2019-02-12T06:25:14.356Z,76.33
2019-02-12T06:26:14.427Z,76.43
2019-02-12T06:27:14.336Z,76.96
2019-02-12T06:28:14.356Z,74.74
2019-02-12T06:29:14.376Z,73.90
2019-02-12T06:30:14.307Z,73.80
2019-02-12T06:31:14.367Z,75.32
2019-02-12T06:32:14.280Z,73.87
2019-02-12T06:33:14.299Z,73.14
2019-02-12T06:34:14.268Z,72.93
2019-02-12T06:35:14.273Z,72.93
2019-02-12T06:36:15.329Z,73.14
2019-02-12T06:37:14.219Z,73.87
2019-02-12T06:38:15.259Z,74.08
2019-02-12T06:39:14.211Z,74.29
2019-02-12T06:40:14.280Z,73.66
2019-02-12T06:41:15.373Z,73.25
2019-02-12T06:42:14.155Z,72.93
2019-02-12T06:43:14.174Z,72.93
2019-02-12T06:44:14.155Z,72.83
2019-02-12T06:45:14.134Z,72.49
2019-02-12T06:46:14.116Z,72.49
2019-02-12T06:47:14.144Z,72.69
2019-02-12T06:48:14.093Z,72.80
2019-02-12T06:49:15.133Z,73.21
2019-02-12T06:50:15.225Z,73.00
2019-02-12T06:51:14.062Z,73.32
2019-02-12T06:52:14.205Z,73.63
2019-02-12T06:53:14.035Z,73.73
2019-02-12T06:54:15.085Z,73.83
2019-02-12T06:55:14.006Z,74.25
2019-02-12T06:56:14.056Z,74.25
2019-02-12T06:57:14.014Z,74.04
2019-02-12T06:58:14.187Z,74.15
2019-02-12T06:59:13.967Z,74.57
2019-02-12T07:00:14.040Z,74.88
2019-02-12T07:01:13.949Z,73.83
2019-02-12T07:02:13.969Z,74.57
2019-02-12T07:03:14.246Z,74.15
2019-02-12T07:04:13.959Z,74.77
2019-02-12T07:05:13.920Z,75.81
2019-02-12T07:06:13.890Z,74.88
2019-02-12T07:07:14.931Z,74.98
2019-02-12T07:08:13.872Z,75.29
2019-02-12T07:09:14.125Z,74.57
2019-02-12T07:10:13.857Z,74.88
2019-02-12T07:11:13.844Z,74.88
2019-02-12T07:12:14.872Z,76.12
2019-02-12T07:13:13.803Z,74.88
2019-02-12T07:14:14.866Z,75.71
2019-02-12T07:15:13.842Z,75.81
2019-02-12T07:16:13.787Z,76.33
2019-02-12T07:17:13.795Z,76.23
2019-02-12T07:18:13.755Z,76.75
2019-02-12T07:19:14.796Z,77.79
2019-02-12T07:20:13.772Z,78.00
2019-02-12T07:21:13.800Z,77.89
2019-02-12T07:22:13.725Z,78.55
2019-02-12T07:23:21.218Z,78.76
2019-02-12T07:24:14.707Z,79.07
2019-02-12T07:25:13.738Z,79.69
2019-02-12T07:26:13.658Z,80.22
2019-02-12T07:27:13.672Z,80.43
2019-02-12T07:28:13.639Z,80.53
2019-02-12T07:29:13.749Z,80.74
2019-02-12T07:30:13.613Z,81.26
2019-02-12T07:31:13.641Z,80.63
2019-02-12T07:32:13.595Z,81.05
2019-02-12T07:33:13.720Z,80.43
2019-02-12T07:34:13.601Z,80.32
2019-02-12T07:35:13.622Z,79.91
2019-02-12T07:36:13.544Z,80.11
2019-02-12T07:37:13.590Z,80.29
2019-02-12T07:38:13.646Z,79.35
2019-02-12T07:39:13.523Z,79.14
2019-02-12T07:40:13.553Z,79.45
2019-02-12T07:41:19.854Z,78.72
2019-02-12T07:42:14.495Z,79.66
2019-02-12T07:43:13.644Z,79.24
2019-02-12T07:44:13.586Z,78.52
2019-02-12T07:45:13.456Z,78.48
2019-02-12T07:46:13.466Z,78.79
2019-02-12T07:47:13.533Z,78.48
2019-02-12T07:48:13.419Z,78.17
2019-02-12T07:49:13.517Z,78.79
2019-02-12T07:50:13.528Z,78.69
2019-02-12T07:51:14.428Z,78.79
2019-02-12T07:52:13.373Z,80.49
2019-02-12T07:53:13.438Z,80.80
2019-02-12T07:54:13.372Z,81.32
2019-02-12T07:55:13.369Z,81.43
2019-02-12T07:56:13.330Z,81.84
2019-02-12T07:57:14.340Z,81.84
2019-02-12T07:58:13.325Z,82.05
2019-02-12T07:59:14.421Z,81.57
2019-02-12T08:00:13.311Z,81.74
2019-02-12T08:01:13.399Z,81.74
2019-02-12T08:02:13.267Z,82.09
2019-02-12T08:03:13.241Z,81.98
2019-02-12T08:04:13.355Z,81.74
2019-02-12T08:05:13.213Z,82.68
2019-02-12T08:06:13.324Z,81.95
2019-02-12T08:07:13.183Z,81.84
2019-02-12T08:08:13.195Z,82.15
2019-02-12T08:09:13.205Z,81.88
2019-02-12T08:10:15.239Z,81.74
2019-02-12T08:11:13.146Z,81.98
2019-02-12T08:12:15.169Z,82.82
2019-02-12T08:13:13.117Z,84.59
2019-02-12T08:14:13.207Z,84.80
2019-02-12T08:15:13.107Z,85.98
2019-02-12T08:16:13.198Z,86.40
2019-02-12T08:17:13.071Z,86.91
2019-02-12T08:18:14.159Z,87.12
2019-02-12T08:19:13.092Z,87.12
2019-02-12T08:20:13.073Z,87.12
2019-02-12T08:21:13.049Z,87.54
2019-02-12T08:22:14.262Z,88.06
2019-02-12T08:23:13.021Z,88.37
2019-02-12T08:24:13.025Z,88.58
2019-02-12T08:25:13.002Z,89.04
2019-02-12T08:26:13.081Z,89.14
2019-02-12T08:27:12.987Z,89.04
2019-02-12T08:28:13.013Z,89.35
2019-02-12T08:29:12.956Z,90.19
2019-02-12T08:30:12.954Z,90.08
2019-02-12T08:31:13.023Z,90.08
2019-02-12T08:32:12.951Z,90.39
2019-02-12T08:33:13.974Z,90.19
2019-02-12T08:34:12.895Z,89.66
2019-02-12T08:35:12.905Z,89.83
2019-02-12T08:36:12.955Z,90.29
2019-02-12T08:37:12.865Z,90.60
2019-02-12T08:38:13.916Z,91.39
2019-02-12T08:39:12.848Z,91.60
2019-02-12T08:40:13.897Z,91.28
2019-02-12T08:41:12.827Z,90.35
2019-02-12T08:42:12.869Z,89.94
2019-02-12T08:43:12.788Z,89.76
2019-02-12T08:44:13.822Z,89.98
2019-02-12T08:45:12.780Z,90.60
2019-02-12T08:46:12.750Z,89.62
2019-02-12T08:47:12.745Z,89.76
2019-02-12T08:48:12.798Z,91.18
2019-02-12T08:49:12.726Z,90.87
2019-02-12T08:50:12.750Z,90.77
2019-02-12T08:51:12.691Z,91.18
2019-02-12T08:52:12.770Z,90.87
2019-02-12T08:53:12.674Z,91.18
2019-02-12T08:54:13.758Z,91.22
2019-02-12T08:55:12.662Z,91.71
2019-02-12T08:56:13.734Z,91.60
2019-02-12T08:57:13.713Z,90.87
2019-02-12T08:58:12.620Z,90.87
2019-02-12T08:59:12.725Z,90.56
2019-02-12T09:00:12.604Z,90.87
2019-02-12T09:01:12.663Z,90.35
2019-02-12T09:02:12.575Z,90.77
2019-02-12T09:03:12.566Z,91.71
2019-02-12T09:04:13.586Z,91.28
2019-02-12T09:05:12.578Z,91.64
2019-02-12T09:06:12.601Z,91.53
2019-02-12T09:07:12.527Z,91.43
2019-02-12T09:08:12.512Z,91.64
2019-02-12T09:09:12.599Z,91.43
2019-02-12T09:10:12.487Z,91.64
2019-02-12T09:11:12.590Z,91.64
2019-02-12T09:12:12.455Z,91.64
2019-02-12T09:13:13.483Z,92.58
2019-02-12T09:14:12.440Z,92.68
2019-02-12T09:15:12.511Z,93.10
2019-02-12T09:16:12.465Z,92.47
2019-02-12T09:17:12.454Z,92.37
2019-02-12T09:18:12.401Z,92.47
2019-02-12T09:19:12.395Z,92.16
2019-02-12T09:20:12.444Z,92.58
2019-02-12T09:21:12.383Z,92.68
2019-02-12T09:22:12.384Z,92.37
2019-02-12T09:23:12.343Z,92.68
2019-02-12T09:24:12.335Z,91.53
2019-02-12T09:25:12.306Z,91.33
2019-02-12T09:26:12.407Z,92.33
2019-02-12T09:27:12.275Z,92.47
2019-02-12T09:28:12.385Z,91.81
2019-02-12T09:29:12.276Z,91.39
2019-02-12T09:30:12.266Z,91.71
2019-02-12T09:31:13.360Z,91.60
2019-02-12T09:32:12.228Z,91.60
2019-02-12T09:33:12.328Z,91.60
2019-02-12T09:34:12.209Z,91.87
2019-02-12T09:35:12.204Z,91.66
2019-02-12T09:36:12.299Z,91.77
2019-02-12T09:37:12.171Z,91.41
2019-02-12T09:38:12.309Z,91.52
2019-02-12T09:39:12.152Z,91.62
2019-02-12T09:40:18.826Z,91.16
2019-02-12T09:41:13.187Z,91.16
2019-02-12T09:42:14.191Z,91.37
2019-02-12T09:43:12.102Z,90.64
2019-02-12T09:44:13.018Z,90.60
2019-02-12T09:45:12.092Z,90.60
2019-02-12T09:46:12.092Z,89.36
2019-02-12T09:47:12.183Z,88.31
2019-02-12T09:48:12.054Z,87.07
2019-02-12T09:49:12.123Z,87.27
2019-02-12T09:50:12.034Z,86.96
2019-02-12T09:51:12.034Z,87.90
2019-02-12T09:52:12.126Z,88.31
2019-02-12T09:53:12.005Z,88.21
2019-02-12T09:54:12.055Z,87.48
2019-02-12T09:55:11.976Z,88.52
2019-02-12T09:56:11.977Z,88.84
2019-02-12T09:57:11.976Z,88.62
2019-02-12T09:58:12.028Z,89.21
2019-02-12T09:59:11.927Z,88.65
2019-02-12T10:00:11.968Z,88.38
2019-02-12T10:01:11.918Z,87.09
2019-02-12T10:02:18.549Z,86.82
2019-02-12T10:03:11.889Z,86.68
2019-02-12T10:04:11.929Z,87.51
2019-02-12T10:05:11.860Z,86.78
2019-02-12T10:06:21.280Z,87.09
2019-02-12T10:07:14.911Z,85.71
2019-02-12T10:08:11.821Z,84.98
2019-02-12T10:09:13.922Z,84.56
2019-02-12T10:10:11.812Z,86.18
2019-02-12T10:11:12.872Z,83.90
2019-02-12T10:12:11.869Z,84.42
2019-02-12T10:13:11.763Z,82.86
2019-02-12T10:14:11.813Z,81.93
2019-02-12T10:15:11.733Z,82.24
2019-02-12T10:16:11.816Z,82.86
2019-02-12T10:17:11.714Z,81.62
2019-02-12T10:18:11.705Z,81.72
2019-02-12T10:19:11.745Z,84.00
2019-02-12T10:20:11.798Z,83.80
2019-02-12T10:21:12.756Z,82.97
2019-02-12T10:22:11.656Z,84.21
2019-02-12T10:23:11.647Z,80.89
2019-02-12T10:24:19.234Z,82.90
2019-02-12T10:25:12.617Z,82.49
2019-02-12T10:26:11.657Z,84.42
2019-02-12T10:27:11.608Z,82.34
2019-02-12T10:28:11.589Z,81.93
2019-02-12T10:29:11.582Z,82.20
2019-02-12T10:30:11.599Z,83.28
2019-02-12T10:31:11.561Z,82.24
2019-02-12T10:32:11.580Z,81.10
2019-02-12T10:33:11.530Z,80.47
2019-02-12T10:34:11.534Z,80.27
2019-02-12T10:35:11.543Z,81.04
2019-02-12T10:36:11.508Z,81.56
2019-02-12T10:37:11.522Z,81.97
2019-02-12T10:39:11.478Z,81.76
2019-02-12T10:40:11.466Z,81.45
2019-02-12T10:41:11.551Z,82.49
2019-02-12T10:42:11.435Z,81.87
2019-02-12T10:43:13.535Z,81.35
2019-02-12T10:44:11.429Z,83.32
2019-02-12T10:45:11.405Z,83.22
2019-02-12T10:46:12.406Z,83.53
2019-02-12T10:47:11.396Z,84.25
2019-02-12T10:48:12.547Z,82.80
2019-02-12T10:49:11.359Z,83.11
2019-02-12T10:50:11.348Z,84.25
2019-02-12T10:51:11.338Z,83.01
2019-02-12T10:52:12.363Z,83.22
2019-02-12T10:53:11.302Z,84.25
2019-02-12T10:54:13.481Z,83.01
2019-02-12T10:55:11.280Z,84.25
2019-02-12T10:56:11.271Z,83.11
2019-02-12T10:57:11.380Z,83.22
2019-02-12T10:58:11.241Z,85.39
2019-02-12T10:59:14.412Z,85.29
2019-02-12T11:00:11.222Z,85.71
2019-02-12T11:01:11.213Z,85.66
2019-02-12T11:02:11.213Z,86.22
2019-02-12T11:03:11.246Z,86.12
2019-02-12T11:04:11.174Z,86.02
2019-02-12T11:05:12.195Z,84.67
2019-02-12T11:06:11.165Z,83.63
2019-02-12T11:07:11.255Z,83.56
2019-02-12T11:08:11.125Z,84.46
2019-02-12T11:09:11.147Z,85.39
2019-02-12T11:10:11.119Z,85.39
2019-02-12T11:11:11.187Z,85.66
2019-02-12T11:12:11.207Z,83.63
2019-02-12T11:13:11.076Z,83.01
2019-02-12T11:14:11.087Z,84.25
2019-02-12T11:15:11.058Z,82.49
2019-02-12T11:16:11.128Z,82.49
2019-02-12T11:17:11.050Z,82.45
2019-02-12T11:18:11.067Z,83.01
2019-02-12T11:19:11.010Z,83.28
2019-02-12T11:20:11.100Z,81.93
2019-02-12T11:21:12.150Z,82.41
2019-02-12T11:22:11.092Z,83.14
2019-02-12T11:23:11.092Z,81.51
2019-02-12T11:24:10.952Z,80.58
2019-02-12T11:25:11.042Z,81.72
2019-02-12T11:26:10.932Z,81.51
2019-02-12T11:27:11.023Z,80.47
2019-02-12T11:28:10.914Z,81.16
2019-02-12T11:29:10.904Z,81.48
2019-02-12T11:30:10.868Z,81.51
2019-02-12T11:31:11.965Z,82.55
2019-02-12T11:32:10.876Z,81.76
2019-02-12T11:33:12.046Z,83.32
2019-02-12T11:34:10.947Z,84.67
2019-02-12T11:35:10.827Z,85.66
2019-02-12T11:36:10.878Z,84.77
2019-02-12T11:37:10.808Z,84.56
2019-02-12T11:38:10.817Z,83.80
2019-02-12T11:39:10.778Z,84.21
2019-02-12T11:40:10.859Z,85.04
2019-02-12T11:41:10.750Z,85.63
2019-02-12T11:42:10.820Z,86.15
2019-02-12T11:43:10.729Z,84.28
2019-02-12T11:44:18.601Z,83.86
2019-02-12T11:45:10.704Z,83.14
2019-02-12T11:46:10.761Z,81.62
2019-02-12T11:47:10.692Z,82.45
2019-02-12T11:48:10.691Z,84.31
2019-02-12T11:49:10.662Z,84.31
2019-02-12T11:50:10.657Z,84.52
2019-02-12T11:51:10.634Z,84.52
2019-02-12T11:52:10.713Z,82.45
2019-02-12T11:53:10.628Z,82.62
2019-02-12T11:54:10.705Z,83.76
2019-02-12T11:55:10.584Z,81.68
2019-02-12T11:56:10.584Z,81.58
2019-02-12T11:57:10.645Z,81.48
2019-02-12T11:58:10.531Z,79.82
2019-02-12T11:59:10.657Z,80.23
2019-02-12T12:00:10.536Z,81.23
2019-02-12T12:01:10.518Z,80.19
2019-02-12T12:02:10.537Z,80.09
2019-02-12T12:03:10.518Z,80.36
2019-02-12T12:04:10.498Z,80.26
2019-02-12T12:05:10.559Z,79.74
2019-02-12T12:06:10.469Z,80.05
2019-02-12T12:07:10.469Z,79.19
2019-02-12T12:08:10.559Z,79.13
2019-02-12T12:09:10.441Z,79.13
2019-02-12T12:10:10.502Z,79.74
2019-02-12T12:11:10.412Z,79.54
2019-02-12T12:12:10.410Z,78.02
2019-02-12T12:13:10.403Z,77.61
2019-02-12T12:14:10.475Z,80.23
2019-02-12T12:15:10.374Z,81.51
2019-02-12T12:16:11.217Z,81.41
2019-02-12T12:17:10.366Z,82.70
2019-02-12T12:18:10.335Z,82.59
2019-02-12T12:19:10.407Z,81.87
2019-02-12T12:20:10.314Z,82.70
2019-02-12T12:21:10.346Z,82.70
2019-02-12T12:22:10.288Z,82.39
2019-02-12T12:23:10.264Z,81.87
2019-02-12T12:24:10.257Z,82.76
2019-02-12T12:25:10.336Z,81.76
2019-02-12T12:26:10.237Z,81.41
2019-02-12T12:27:10.287Z,81.51
2019-02-12T12:28:10.218Z,80.68
2019-02-12T12:29:10.278Z,80.99
2019-02-12T12:30:10.192Z,80.65
2019-02-12T12:31:12.250Z,80.47
2019-02-12T12:32:10.200Z,79.82
2019-02-12T12:33:10.260Z,79.61
2019-02-12T12:34:10.140Z,79.82
2019-02-12T12:35:10.209Z,79.61
2019-02-12T12:36:10.122Z,80.23
2019-02-12T12:37:10.122Z,80.65
2019-02-12T12:38:10.115Z,79.20
2019-02-12T12:39:10.083Z,80.13
2019-02-12T12:40:10.074Z,79.30
2019-02-12T12:41:11.133Z,79.92
2019-02-12T12:42:10.058Z,79.03
2019-02-12T12:43:11.117Z,80.99
2019-02-12T12:44:10.052Z,79.13
2019-02-12T12:45:10.026Z,79.24
2019-02-12T12:46:10.038Z,79.03
2019-02-12T12:47:10.006Z,78.30
2019-02-12T12:48:10.033Z,79.55
2019-02-12T12:49:09.977Z,80.58
2019-02-12T12:50:09.957Z,81.62
2019-02-12T12:51:09.959Z,82.07
2019-02-12T12:52:10.059Z,81.87
2019-02-12T12:53:09.929Z,82.90